sensor_id;sensor_type;location;lat;lon;timestamp;temperature;humidity
21340;DHT22;10828;47.064;15.422;2023-05-10T05:00:07;9.70;99.90
21340;DHT22;10828;47.064;15.422;2023-05-10T05:02:35;9.70;99.90
21340;DHT22;10828;47.064;15.422;2023-05-10T05:05:05;9.70;99.90
21340;DHT22;10828;47.064;15.422;2023-05-10T05:07:31;9.70;99.90
21340;DHT22;10828;47.064;15.422;2023-05-10T05:09:58;9.70;99.90
21340;DHT22;10828;47.064;15.422;2023-05-10T05:12:26;9.70;99.90
21340;DHT22;10828;47.064;15.422;2023-05-10T05:14:51;9.70;99.90
21340;DHT22;10828;47.064;15.422;2023-05-10T05:17:17;9.70;99.90
21340;DHT22;10828;47.064;15.422;2023-05-10T05:19:43;9.70;99.90
21340;DHT22;10828;47.064;15.422;2023-05-10T05:22:08;9.80;99.90
21340;DHT22;10828;47.064;15.422;2023-05-10T05:24:37;9.80;99.90
21340;DHT22;10828;47.064;15.422;2023-05-10T05:27:04;10.00;99.90
21340;DHT22;10828;47.064;15.422;2023-05-10T05:29:30;10.10;99.90
21340;DHT22;10828;47.064;15.422;2023-05-10T05:31:56;10.20;99.90
21340;DHT22;10828;47.064;15.422;2023-05-10T05:34:21;10.30;99.90
21340;DHT22;10828;47.064;15.422;2023-05-10T05:36:48;10.30;99.90
21340;DHT22;10828;47.064;15.422;2023-05-10T05:39:14;10.40;99.90
21340;DHT22;10828;47.064;15.422;2023-05-10T05:41:41;10.40;99.90
21340;DHT22;10828;47.064;15.422;2023-05-10T05:44:08;10.50;99.90
21340;DHT22;10828;47.064;15.422;2023-05-10T05:46:39;10.60;99.90
21340;DHT22;10828;47.064;15.422;2023-05-10T05:49:07;10.70;99.90
21340;DHT22;10828;47.064;15.422;2023-05-10T05:51:34;10.80;99.90
21340;DHT22;10828;47.064;15.422;2023-05-10T05:54:01;10.90;99.90
21340;DHT22;10828;47.064;15.422;2023-05-10T05:56:29;11.00;99.90
21340;DHT22;10828;47.064;15.422;2023-05-10T05:58:55;11.10;99.90
21340;DHT22;10828;47.064;15.422;2023-05-10T06:01:21;11.20;99.90
21340;DHT22;10828;47.064;15.422;2023-05-10T06:03:47;11.30;99.90
21340;DHT22;10828;47.064;15.422;2023-05-10T06:06:14;11.40;99.90
21340;DHT22;10828;47.064;15.422;2023-05-10T06:08:39;11.50;99.90
21340;DHT22;10828;47.064;15.422;2023-05-10T06:11:05;11.60;99.90
21340;DHT22;10828;47.064;15.422;2023-05-10T06:13:32;11.70;99.90
21340;DHT22;10828;47.064;15.422;2023-05-10T06:15:58;11.80;99.90
21340;DHT22;10828;47.064;15.422;2023-05-10T06:18:24;11.80;99.90
21340;DHT22;10828;47.064;15.422;2023-05-10T06:20:51;11.90;99.90
21340;DHT22;10828;47.064;15.422;2023-05-10T06:23:18;12.00;99.90
21340;DHT22;10828;47.064;15.422;2023-05-10T06:25:43;12.00;99.90
21340;DHT22;10828;47.064;15.422;2023-05-10T06:28:09;12.00;99.90
21340;DHT22;10828;47.064;15.422;2023-05-10T06:30:36;12.00;99.90
21340;DHT22;10828;47.064;15.422;2023-05-10T06:33:03;12.10;99.90
21340;DHT22;10828;47.064;15.422;2023-05-10T06:35:29;12.20;99.90
21340;DHT22;10828;47.064;15.422;2023-05-10T06:37:58;12.30;99.90
21340;DHT22;10828;47.064;15.422;2023-05-10T06:40:25;12.30;99.90
21340;DHT22;10828;47.064;15.422;2023-05-10T06:42:50;12.40;99.90
21340;DHT22;10828;47.064;15.422;2023-05-10T06:45:17;12.40;99.90
21340;DHT22;10828;47.064;15.422;2023-05-10T06:47:43;12.40;99.90
21340;DHT22;10828;47.064;15.422;2023-05-10T06:50:09;12.50;99.90
21340;DHT22;10828;47.064;15.422;2023-05-10T06:52:36;12.50;99.90
21340;DHT22;10828;47.064;15.422;2023-05-10T06:55:05;12.50;99.90
21340;DHT22;10828;47.064;15.422;2023-05-10T06:57:31;12.60;99.90
21340;DHT22;10828;47.064;15.422;2023-05-10T06:59:59;12.60;99.90
21340;DHT22;10828;47.064;15.422;2023-05-10T07:02:25;12.60;99.90
21340;DHT22;10828;47.064;15.422;2023-05-10T07:04:50;12.70;99.90
21340;DHT22;10828;47.064;15.422;2023-05-10T07:07:17;12.70;99.90
21340;DHT22;10828;47.064;15.422;2023-05-10T07:09:43;12.70;99.90
21340;DHT22;10828;47.064;15.422;2023-05-10T07:12:08;12.70;99.90
21340;DHT22;10828;47.064;15.422;2023-05-10T07:14:34;12.70;99.90
21340;DHT22;10828;47.064;15.422;2023-05-10T07:17:00;12.80;99.90
21340;DHT22;10828;47.064;15.422;2023-05-10T07:19:27;12.80;99.90
21340;DHT22;10828;47.064;15.422;2023-05-10T07:21:55;12.90;99.90
21340;DHT22;10828;47.064;15.422;2023-05-10T07:24:21;12.50;99.90
21340;DHT22;10828;47.064;15.422;2023-05-10T07:26:47;12.20;99.90
21340;DHT22;10828;47.064;15.422;2023-05-10T07:29:12;12.10;99.90
21340;DHT22;10828;47.064;15.422;2023-05-10T07:31:47;12.00;99.90
21340;DHT22;10828;47.064;15.422;2023-05-10T07:34:12;11.90;99.90
21340;DHT22;10828;47.064;15.422;2023-05-10T07:36:41;11.90;99.90
21340;DHT22;10828;47.064;15.422;2023-05-10T07:39:10;12.10;99.90
21340;DHT22;10828;47.064;15.422;2023-05-10T07:41:39;12.00;99.90
21340;DHT22;10828;47.064;15.422;2023-05-10T07:44:06;12.10;99.90
21340;DHT22;10828;47.064;15.422;2023-05-10T07:46:31;12.10;99.90
21340;DHT22;10828;47.064;15.422;2023-05-10T07:48:57;12.20;99.90
21340;DHT22;10828;47.064;15.422;2023-05-10T07:51:22;12.10;99.90
21340;DHT22;10828;47.064;15.422;2023-05-10T07:53:48;12.20;99.90
21340;DHT22;10828;47.064;15.422;2023-05-10T07:56:27;12.30;99.90
21340;DHT22;10828;47.064;15.422;2023-05-10T07:58:55;12.30;99.90
21340;DHT22;10828;47.064;15.422;2023-05-10T08:01:21;12.40;99.90
21340;DHT22;10828;47.064;15.422;2023-05-10T08:03:48;12.50;99.90
21340;DHT22;10828;47.064;15.422;2023-05-10T08:06:18;12.50;99.90
21340;DHT22;10828;47.064;15.422;2023-05-10T08:08:46;12.60;99.90
21340;DHT22;10828;47.064;15.422;2023-05-10T08:11:25;12.60;99.90
21340;DHT22;10828;47.064;15.422;2023-05-10T08:13:53;12.70;99.90
21340;DHT22;10828;47.064;15.422;2023-05-10T08:16:20;12.90;99.90
21340;DHT22;10828;47.064;15.422;2023-05-10T08:18:46;12.90;99.90
21340;DHT22;10828;47.064;15.422;2023-05-10T08:21:12;13.10;99.90
21340;DHT22;10828;47.064;15.422;2023-05-10T08:23:42;13.20;99.90
21340;DHT22;10828;47.064;15.422;2023-05-10T08:26:09;13.30;99.90
21340;DHT22;10828;47.064;15.422;2023-05-10T08:28:35;13.40;99.90
21340;DHT22;10828;47.064;15.422;2023-05-10T08:31:01;13.50;99.90
21340;DHT22;10828;47.064;15.422;2023-05-10T08:33:26;13.60;99.90
21340;DHT22;10828;47.064;15.422;2023-05-10T08:35:52;13.70;99.90
21340;DHT22;10828;47.064;15.422;2023-05-10T08:38:19;13.70;99.90
21340;DHT22;10828;47.064;15.422;2023-05-10T08:40:49;13.90;99.90
21340;DHT22;10828;47.064;15.422;2023-05-10T08:43:29;14.00;99.90
21340;DHT22;10828;47.064;15.422;2023-05-10T08:45:55;14.10;99.90
21340;DHT22;10828;47.064;15.422;2023-05-10T08:48:26;14.30;99.90
21340;DHT22;10828;47.064;15.422;2023-05-10T08:50:54;14.40;99.90
21340;DHT22;10828;47.064;15.422;2023-05-10T08:53:24;14.40;99.90
21340;DHT22;10828;47.064;15.422;2023-05-10T08:55:53;14.40;99.90
21340;DHT22;10828;47.064;15.422;2023-05-10T08:58:19;14.60;99.90
21340;DHT22;10828;47.064;15.422;2023-05-10T09:00:45;14.80;99.90
21340;DHT22;10828;47.064;15.422;2023-05-10T09:03:13;14.90;99.90
21340;DHT22;10828;47.064;15.422;2023-05-10T09:05:40;15.00;99.90
21340;DHT22;10828;47.064;15.422;2023-05-10T09:08:08;15.20;99.90
21340;DHT22;10828;47.064;15.422;2023-05-10T09:10:46;15.30;99.90
21340;DHT22;10828;47.064;15.422;2023-05-10T09:13:15;15.50;99.90
21340;DHT22;10828;47.064;15.422;2023-05-10T09:15:43;15.60;99.90
21340;DHT22;10828;47.064;15.422;2023-05-10T09:18:30;15.80;99.90
21340;DHT22;10828;47.064;15.422;2023-05-10T09:20:57;15.90;99.90
21340;DHT22;10828;47.064;15.422;2023-05-10T09:23:25;16.00;99.90
21340;DHT22;10828;47.064;15.422;2023-05-10T09:26:07;16.00;99.90
21340;DHT22;10828;47.064;15.422;2023-05-10T09:28:57;16.00;99.90
21340;DHT22;10828;47.064;15.422;2023-05-10T09:31:24;15.80;99.90
21340;DHT22;10828;47.064;15.422;2023-05-10T09:33:53;15.80;99.90
21340;DHT22;10828;47.064;15.422;2023-05-10T09:36:26;15.60;99.90
21340;DHT22;10828;47.064;15.422;2023-05-10T09:38:53;15.60;99.90
21340;DHT22;10828;47.064;15.422;2023-05-10T09:41:23;15.60;99.90
21340;DHT22;10828;47.064;15.422;2023-05-10T09:44:02;15.70;99.90
21340;DHT22;10828;47.064;15.422;2023-05-10T09:46:34;16.00;99.90
21340;DHT22;10828;47.064;15.422;2023-05-10T09:49:09;16.00;99.90
21340;DHT22;10828;47.064;15.422;2023-05-10T09:51:39;15.80;99.90
21340;DHT22;10828;47.064;15.422;2023-05-10T09:54:14;15.80;99.90
21340;DHT22;10828;47.064;15.422;2023-05-10T09:56:44;15.70;99.90
21340;DHT22;10828;47.064;15.422;2023-05-10T09:59:12;15.80;99.90
21340;DHT22;10828;47.064;15.422;2023-05-10T10:01:59;16.30;99.90
21340;DHT22;10828;47.064;15.422;2023-05-10T10:04:26;16.70;99.90
21340;DHT22;10828;47.064;15.422;2023-05-10T10:07:03;16.90;99.90
21340;DHT22;10828;47.064;15.422;2023-05-10T10:09:30;17.00;99.90
21340;DHT22;10828;47.064;15.422;2023-05-10T10:11:56;16.90;99.90
21340;DHT22;10828;47.064;15.422;2023-05-10T10:14:24;16.40;99.90
21340;DHT22;10828;47.064;15.422;2023-05-10T10:16:50;16.00;99.90
21340;DHT22;10828;47.064;15.422;2023-05-10T10:19:20;16.10;99.90
21340;DHT22;10828;47.064;15.422;2023-05-10T10:21:47;16.20;99.90
21340;DHT22;10828;47.064;15.422;2023-05-10T10:24:24;16.20;99.90
21340;DHT22;10828;47.064;15.422;2023-05-10T10:26:52;16.20;99.90
21340;DHT22;10828;47.064;15.422;2023-05-10T10:29:26;16.10;99.90
21340;DHT22;10828;47.064;15.422;2023-05-10T10:34:30;16.10;99.90
21340;DHT22;10828;47.064;15.422;2023-05-10T10:37:04;16.10;99.90
21340;DHT22;10828;47.064;15.422;2023-05-10T10:39:30;16.20;99.90
21340;DHT22;10828;47.064;15.422;2023-05-10T10:41:57;16.20;99.90
21340;DHT22;10828;47.064;15.422;2023-05-10T10:52:39;16.60;99.90
21340;DHT22;10828;47.064;15.422;2023-05-10T10:57:55;16.50;99.90
21340;DHT22;10828;47.064;15.422;2023-05-10T11:00:37;16.60;99.90
21340;DHT22;10828;47.064;15.422;2023-05-10T11:03:10;16.60;99.90
21340;DHT22;10828;47.064;15.422;2023-05-10T11:05:50;16.60;99.90
21340;DHT22;10828;47.064;15.422;2023-05-10T11:08:31;16.70;99.90
21340;DHT22;10828;47.064;15.422;2023-05-10T11:11:06;16.80;99.90
21340;DHT22;10828;47.064;15.422;2023-05-10T11:14:03;16.80;99.90
21340;DHT22;10828;47.064;15.422;2023-05-10T11:16:41;16.90;99.90
21340;DHT22;10828;47.064;15.422;2023-05-10T11:19:12;17.00;99.90
21340;DHT22;10828;47.064;15.422;2023-05-10T11:22:12;17.00;99.90
21340;DHT22;10828;47.064;15.422;2023-05-10T11:24:56;17.20;99.90
21340;DHT22;10828;47.064;15.422;2023-05-10T11:27:25;17.40;99.90
21340;DHT22;10828;47.064;15.422;2023-05-10T11:29:52;17.50;99.90
21340;DHT22;10828;47.064;15.422;2023-05-10T11:32:19;17.50;99.90
21340;DHT22;10828;47.064;15.422;2023-05-10T11:34:47;17.20;99.90
21340;DHT22;10828;47.064;15.422;2023-05-10T11:37:13;17.10;99.90
21340;DHT22;10828;47.064;15.422;2023-05-10T11:39:45;17.20;99.90
21340;DHT22;10828;47.064;15.422;2023-05-10T11:42:14;17.40;99.90
21340;DHT22;10828;47.064;15.422;2023-05-10T11:44:41;17.50;99.90
21340;DHT22;10828;47.064;15.422;2023-05-10T11:47:07;17.50;99.90
21340;DHT22;10828;47.064;15.422;2023-05-10T11:49:32;17.40;99.90
21340;DHT22;10828;47.064;15.422;2023-05-10T11:52:06;17.20;99.90
21340;DHT22;10828;47.064;15.422;2023-05-10T11:54:32;17.10;99.90
21340;DHT22;10828;47.064;15.422;2023-05-10T11:57:00;17.10;99.90
21340;DHT22;10828;47.064;15.422;2023-05-10T11:59:25;17.00;99.90
21340;DHT22;10828;47.064;15.422;2023-05-10T12:01:51;16.80;99.90
21340;DHT22;10828;47.064;15.422;2023-05-10T12:04:17;16.90;99.90
21340;DHT22;10828;47.064;15.422;2023-05-10T12:06:42;17.10;99.90
21340;DHT22;10828;47.064;15.422;2023-05-10T12:09:08;17.10;99.90
21340;DHT22;10828;47.064;15.422;2023-05-10T12:11:38;17.10;99.90
21340;DHT22;10828;47.064;15.422;2023-05-10T12:14:05;17.10;99.90
21340;DHT22;10828;47.064;15.422;2023-05-10T12:16:31;17.10;99.90
21340;DHT22;10828;47.064;15.422;2023-05-10T12:18:59;17.10;99.90
21340;DHT22;10828;47.064;15.422;2023-05-10T12:21:28;17.00;99.90
21340;DHT22;10828;47.064;15.422;2023-05-10T12:24:00;17.10;99.90
21340;DHT22;10828;47.064;15.422;2023-05-10T12:26:28;17.00;99.90
21340;DHT22;10828;47.064;15.422;2023-05-10T12:28:54;17.00;99.90
21340;DHT22;10828;47.064;15.422;2023-05-10T12:31:20;17.10;99.90
21340;DHT22;10828;47.064;15.422;2023-05-10T12:33:46;17.00;99.90
21340;DHT22;10828;47.064;15.422;2023-05-10T12:36:15;17.00;99.90
21340;DHT22;10828;47.064;15.422;2023-05-10T12:38:41;16.80;99.90
21340;DHT22;10828;47.064;15.422;2023-05-10T12:41:11;16.70;99.90
21340;DHT22;10828;47.064;15.422;2023-05-10T12:43:39;16.70;99.90
21340;DHT22;10828;47.064;15.422;2023-05-10T12:46:16;16.60;99.90
21340;DHT22;10828;47.064;15.422;2023-05-10T12:49:00;16.70;99.90
21340;DHT22;10828;47.064;15.422;2023-05-10T12:51:28;16.90;99.90
21340;DHT22;10828;47.064;15.422;2023-05-10T12:53:54;16.80;99.90
21340;DHT22;10828;47.064;15.422;2023-05-10T12:56:28;16.70;99.90
21340;DHT22;10828;47.064;15.422;2023-05-10T12:58:54;16.70;99.90
21340;DHT22;10828;47.064;15.422;2023-05-10T13:01:21;16.70;99.90
21340;DHT22;10828;47.064;15.422;2023-05-10T13:03:48;16.80;99.90
21340;DHT22;10828;47.064;15.422;2023-05-10T13:06:15;17.00;99.90
21340;DHT22;10828;47.064;15.422;2023-05-10T13:08:41;17.10;99.90
21340;DHT22;10828;47.064;15.422;2023-05-10T13:11:07;17.00;99.90
21340;DHT22;10828;47.064;15.422;2023-05-10T13:13:33;17.00;99.90
21340;DHT22;10828;47.064;15.422;2023-05-10T13:15:58;17.00;99.90
21340;DHT22;10828;47.064;15.422;2023-05-10T13:18:24;17.00;99.90
21340;DHT22;10828;47.064;15.422;2023-05-10T13:20:49;17.00;99.90
21340;DHT22;10828;47.064;15.422;2023-05-10T13:23:16;17.00;99.90
21340;DHT22;10828;47.064;15.422;2023-05-10T13:25:43;17.00;99.90
21340;DHT22;10828;47.064;15.422;2023-05-10T13:28:08;17.00;99.90
21340;DHT22;10828;47.064;15.422;2023-05-10T13:30:34;16.90;99.90
21340;DHT22;10828;47.064;15.422;2023-05-10T13:32:59;16.90;99.90
21340;DHT22;10828;47.064;15.422;2023-05-10T13:35:26;17.00;99.90
21340;DHT22;10828;47.064;15.422;2023-05-10T13:37:52;17.00;99.90
21340;DHT22;10828;47.064;15.422;2023-05-10T13:40:19;17.00;99.90
21340;DHT22;10828;47.064;15.422;2023-05-10T13:42:45;16.80;99.90
21340;DHT22;10828;47.064;15.422;2023-05-10T13:45:11;16.90;99.90
21340;DHT22;10828;47.064;15.422;2023-05-10T13:47:37;16.90;99.90
21340;DHT22;10828;47.064;15.422;2023-05-10T13:50:03;17.00;99.90
21340;DHT22;10828;47.064;15.422;2023-05-10T13:52:28;17.00;99.90
21340;DHT22;10828;47.064;15.422;2023-05-10T13:54:54;17.00;99.90
21340;DHT22;10828;47.064;15.422;2023-05-10T13:57:21;17.00;99.90
21340;DHT22;10828;47.064;15.422;2023-05-10T13:59:48;16.90;99.90
21340;DHT22;10828;47.064;15.422;2023-05-10T14:02:20;16.90;99.90
21340;DHT22;10828;47.064;15.422;2023-05-10T14:04:46;17.00;99.90
21340;DHT22;10828;47.064;15.422;2023-05-10T14:07:12;17.00;99.90
21340;DHT22;10828;47.064;15.422;2023-05-10T14:09:37;17.00;99.90
21340;DHT22;10828;47.064;15.422;2023-05-10T14:12:04;17.00;99.90
21340;DHT22;10828;47.064;15.422;2023-05-10T14:14:29;17.00;99.90
21340;DHT22;10828;47.064;15.422;2023-05-10T14:16:55;17.10;99.90
21340;DHT22;10828;47.064;15.422;2023-05-10T14:19:21;17.20;99.90
21340;DHT22;10828;47.064;15.422;2023-05-10T14:21:47;17.30;99.90
21340;DHT22;10828;47.064;15.422;2023-05-10T14:24:12;17.20;99.90
21340;DHT22;10828;47.064;15.422;2023-05-10T14:26:38;17.10;99.90
21340;DHT22;10828;47.064;15.422;2023-05-10T14:29:04;17.00;99.90
21340;DHT22;10828;47.064;15.422;2023-05-10T14:31:30;17.00;99.90
21340;DHT22;10828;47.064;15.422;2023-05-10T14:33:57;16.90;99.90
21340;DHT22;10828;47.064;15.422;2023-05-10T14:36:23;16.90;99.90
21340;DHT22;10828;47.064;15.422;2023-05-10T14:38:48;16.90;99.90
21340;DHT22;10828;47.064;15.422;2023-05-10T14:41:15;17.00;99.90
21340;DHT22;10828;47.064;15.422;2023-05-10T14:43:42;17.20;99.90
21340;DHT22;10828;47.064;15.422;2023-05-10T14:46:08;17.30;99.90
21340;DHT22;10828;47.064;15.422;2023-05-10T14:48:34;17.30;99.90
21340;DHT22;10828;47.064;15.422;2023-05-10T14:51:00;17.20;99.90
21340;DHT22;10828;47.064;15.422;2023-05-10T14:53:25;17.20;99.90
21340;DHT22;10828;47.064;15.422;2023-05-10T14:55:51;17.30;99.90
21340;DHT22;10828;47.064;15.422;2023-05-10T14:58:17;17.40;99.90
21340;DHT22;10828;47.064;15.422;2023-05-10T15:00:43;17.40;99.90
21340;DHT22;10828;47.064;15.422;2023-05-10T15:03:10;17.40;99.90
21340;DHT22;10828;47.064;15.422;2023-05-10T15:05:38;17.40;99.90
21340;DHT22;10828;47.064;15.422;2023-05-10T15:08:04;17.40;99.90
21340;DHT22;10828;47.064;15.422;2023-05-10T15:10:31;17.50;99.90
21340;DHT22;10828;47.064;15.422;2023-05-10T15:12:57;17.50;99.90
21340;DHT22;10828;47.064;15.422;2023-05-10T15:15:23;17.50;99.90
21340;DHT22;10828;47.064;15.422;2023-05-10T15:17:50;17.50;99.90
21340;DHT22;10828;47.064;15.422;2023-05-10T15:20:16;17.50;99.90
21340;DHT22;10828;47.064;15.422;2023-05-10T15:22:43;17.60;99.90
21340;DHT22;10828;47.064;15.422;2023-05-10T15:25:09;17.60;99.90
21340;DHT22;10828;47.064;15.422;2023-05-10T15:27:35;17.50;99.90
21340;DHT22;10828;47.064;15.422;2023-05-10T15:30:00;17.40;99.90
21340;DHT22;10828;47.064;15.422;2023-05-10T15:32:26;17.40;99.90
21340;DHT22;10828;47.064;15.422;2023-05-10T15:34:53;17.30;99.90
21340;DHT22;10828;47.064;15.422;2023-05-10T15:37:18;17.30;99.90
21340;DHT22;10828;47.064;15.422;2023-05-10T15:39:44;17.30;99.90
21340;DHT22;10828;47.064;15.422;2023-05-10T15:42:10;17.20;99.90
21340;DHT22;10828;47.064;15.422;2023-05-10T15:44:37;17.30;99.90
21340;DHT22;10828;47.064;15.422;2023-05-10T15:47:04;17.40;99.90
21340;DHT22;10828;47.064;15.422;2023-05-10T15:49:30;17.50;99.90
21340;DHT22;10828;47.064;15.422;2023-05-10T15:51:55;17.60;99.90
21340;DHT22;10828;47.064;15.422;2023-05-10T15:54:21;17.70;99.90
21340;DHT22;10828;47.064;15.422;2023-05-10T15:56:47;17.70;99.90
21340;DHT22;10828;47.064;15.422;2023-05-10T15:59:14;17.90;99.90
21340;DHT22;10828;47.064;15.422;2023-05-10T16:01:40;17.90;99.90
21340;DHT22;10828;47.064;15.422;2023-05-10T16:04:06;17.90;99.90
21340;DHT22;10828;47.064;15.422;2023-05-10T16:06:33;17.90;99.90
21340;DHT22;10828;47.064;15.422;2023-05-10T16:08:59;17.80;99.90
21340;DHT22;10828;47.064;15.422;2023-05-10T16:11:24;17.70;99.90
21340;DHT22;10828;47.064;15.422;2023-05-10T16:13:50;17.60;99.90
21340;DHT22;10828;47.064;15.422;2023-05-10T16:16:17;17.50;99.90
21340;DHT22;10828;47.064;15.422;2023-05-10T16:18:43;17.50;99.90
21340;DHT22;10828;47.064;15.422;2023-05-10T16:21:08;17.50;99.90
21340;DHT22;10828;47.064;15.422;2023-05-10T16:23:34;17.60;99.90
21340;DHT22;10828;47.064;15.422;2023-05-10T16:26:02;17.70;99.90
21340;DHT22;10828;47.064;15.422;2023-05-10T16:28:30;17.60;99.90
21340;DHT22;10828;47.064;15.422;2023-05-10T16:30:58;17.50;99.90
21340;DHT22;10828;47.064;15.422;2023-05-10T16:33:24;17.50;99.90
21340;DHT22;10828;47.064;15.422;2023-05-10T16:35:49;17.50;99.90
21340;DHT22;10828;47.064;15.422;2023-05-10T16:38:16;17.50;99.90
21340;DHT22;10828;47.064;15.422;2023-05-10T16:40:42;17.50;99.90
21340;DHT22;10828;47.064;15.422;2023-05-10T16:43:07;17.40;99.90
21340;DHT22;10828;47.064;15.422;2023-05-10T16:45:33;17.40;99.90
21340;DHT22;10828;47.064;15.422;2023-05-10T16:47:59;17.40;99.90
21340;DHT22;10828;47.064;15.422;2023-05-10T16:50:24;17.40;99.90
21340;DHT22;10828;47.064;15.422;2023-05-10T16:52:51;17.40;99.90
21340;DHT22;10828;47.064;15.422;2023-05-10T16:55:17;17.40;99.90
21340;DHT22;10828;47.064;15.422;2023-05-10T16:57:42;17.40;99.90
21340;DHT22;10828;47.064;15.422;2023-05-10T17:00:08;17.40;99.90
21340;DHT22;10828;47.064;15.422;2023-05-10T17:02:36;17.40;99.90
21340;DHT22;10828;47.064;15.422;2023-05-10T17:05:02;17.40;99.90
21340;DHT22;10828;47.064;15.422;2023-05-10T17:07:28;17.40;99.90
21340;DHT22;10828;47.064;15.422;2023-05-10T17:09:55;17.30;99.90
21340;DHT22;10828;47.064;15.422;2023-05-10T17:12:21;17.40;99.90
21340;DHT22;10828;47.064;15.422;2023-05-10T17:14:46;17.30;99.90
21340;DHT22;10828;47.064;15.422;2023-05-10T17:17:12;17.20;99.90
21340;DHT22;10828;47.064;15.422;2023-05-10T17:19:37;17.20;99.90
21340;DHT22;10828;47.064;15.422;2023-05-10T17:22:07;17.20;99.90
21340;DHT22;10828;47.064;15.422;2023-05-10T17:24:33;17.20;99.90
21340;DHT22;10828;47.064;15.422;2023-05-10T17:26:59;17.30;99.90
21340;DHT22;10828;47.064;15.422;2023-05-10T17:29:28;17.20;99.90
21340;DHT22;10828;47.064;15.422;2023-05-10T17:31:53;17.20;99.90
21340;DHT22;10828;47.064;15.422;2023-05-10T17:34:19;17.10;99.90
21340;DHT22;10828;47.064;15.422;2023-05-10T17:36:46;17.20;99.90
21340;DHT22;10828;47.064;15.422;2023-05-10T17:39:13;17.10;99.90
21340;DHT22;10828;47.064;15.422;2023-05-10T17:41:40;17.10;99.90
21340;DHT22;10828;47.064;15.422;2023-05-10T17:44:06;17.00;99.90
21340;DHT22;10828;47.064;15.422;2023-05-10T17:46:32;17.00;99.90
21340;DHT22;10828;47.064;15.422;2023-05-10T17:49:00;17.00;99.90
21340;DHT22;10828;47.064;15.422;2023-05-10T17:51:25;17.00;99.90
21340;DHT22;10828;47.064;15.422;2023-05-10T17:53:51;17.00;99.90
21340;DHT22;10828;47.064;15.422;2023-05-10T17:56:17;17.00;99.90
21340;DHT22;10828;47.064;15.422;2023-05-10T17:58:42;16.90;99.90
21340;DHT22;10828;47.064;15.422;2023-05-10T18:01:08;16.90;99.90
21340;DHT22;10828;47.064;15.422;2023-05-10T18:03:35;16.90;99.90
21340;DHT22;10828;47.064;15.422;2023-05-10T18:06:04;16.90;99.90
21340;DHT22;10828;47.064;15.422;2023-05-10T18:08:32;16.90;99.90
21340;DHT22;10828;47.064;15.422;2023-05-10T18:10:58;16.90;99.90
21340;DHT22;10828;47.064;15.422;2023-05-10T18:13:24;17.00;99.90
21340;DHT22;10828;47.064;15.422;2023-05-10T18:15:50;17.00;99.90
21340;DHT22;10828;47.064;15.422;2023-05-10T18:18:16;17.00;99.90
21340;DHT22;10828;47.064;15.422;2023-05-10T18:20:42;17.00;99.90
21340;DHT22;10828;47.064;15.422;2023-05-10T18:23:08;17.00;99.90
21340;DHT22;10828;47.064;15.422;2023-05-10T18:25:33;17.00;99.90
21340;DHT22;10828;47.064;15.422;2023-05-10T18:27:59;16.80;99.90
21340;DHT22;10828;47.064;15.422;2023-05-10T18:30:27;16.80;99.90
21340;DHT22;10828;47.064;15.422;2023-05-10T18:32:52;16.70;99.90
21340;DHT22;10828;47.064;15.422;2023-05-10T18:35:20;16.70;99.90
21340;DHT22;10828;47.064;15.422;2023-05-10T18:37:46;16.70;99.90
21340;DHT22;10828;47.064;15.422;2023-05-10T18:40:13;16.70;99.90
21340;DHT22;10828;47.064;15.422;2023-05-10T18:42:39;16.60;99.90
21340;DHT22;10828;47.064;15.422;2023-05-10T18:45:06;16.70;99.90
21340;DHT22;10828;47.064;15.422;2023-05-10T18:47:33;16.60;99.90
21340;DHT22;10828;47.064;15.422;2023-05-10T18:49:59;16.50;99.90
21340;DHT22;10828;47.064;15.422;2023-05-10T18:52:25;16.50;99.90
21340;DHT22;10828;47.064;15.422;2023-05-10T18:54:50;16.50;99.90
21340;DHT22;10828;47.064;15.422;2023-05-10T18:57:17;16.50;99.90
21340;DHT22;10828;47.064;15.422;2023-05-10T18:59:43;16.50;99.90
21340;DHT22;10828;47.064;15.422;2023-05-10T19:02:11;16.40;99.90
21340;DHT22;10828;47.064;15.422;2023-05-10T19:04:38;16.40;99.90
21340;DHT22;10828;47.064;15.422;2023-05-10T19:07:06;16.30;99.90
21340;DHT22;10828;47.064;15.422;2023-05-10T19:09:35;16.30;99.90
21340;DHT22;10828;47.064;15.422;2023-05-10T19:12:03;16.40;99.90
21340;DHT22;10828;47.064;15.422;2023-05-10T19:14:36;16.30;99.90
21340;DHT22;10828;47.064;15.422;2023-05-10T19:17:03;16.30;99.90
21340;DHT22;10828;47.064;15.422;2023-05-10T19:19:33;16.20;99.90
21340;DHT22;10828;47.064;15.422;2023-05-10T19:22:01;16.20;99.90
21340;DHT22;10828;47.064;15.422;2023-05-10T19:24:28;16.20;99.90
21340;DHT22;10828;47.064;15.422;2023-05-10T19:26:55;16.10;99.90
21340;DHT22;10828;47.064;15.422;2023-05-10T19:29:23;16.10;99.90
21340;DHT22;10828;47.064;15.422;2023-05-10T19:31:54;16.00;99.90
21340;DHT22;10828;47.064;15.422;2023-05-10T19:34:21;16.10;99.90
21340;DHT22;10828;47.064;15.422;2023-05-10T19:36:49;16.00;99.90
21340;DHT22;10828;47.064;15.422;2023-05-10T19:39:16;16.00;99.90
21340;DHT22;10828;47.064;15.422;2023-05-10T19:41:42;16.00;99.90
21340;DHT22;10828;47.064;15.422;2023-05-10T19:44:09;16.00;99.90
21340;DHT22;10828;47.064;15.422;2023-05-10T19:46:38;16.00;99.90
21340;DHT22;10828;47.064;15.422;2023-05-10T19:49:07;16.00;99.90
21340;DHT22;10828;47.064;15.422;2023-05-10T19:51:35;16.00;99.90
21340;DHT22;10828;47.064;15.422;2023-05-10T19:54:03;16.00;99.90
21340;DHT22;10828;47.064;15.422;2023-05-10T19:56:31;16.10;99.90
21340;DHT22;10828;47.064;15.422;2023-05-10T19:58:56;16.00;99.90
21340;DHT22;10828;47.064;15.422;2023-05-10T20:01:23;16.10;99.90
21340;DHT22;10828;47.064;15.422;2023-05-10T20:03:57;15.90;99.90
21340;DHT22;10828;47.064;15.422;2023-05-10T20:06:28;16.00;99.90
21340;DHT22;10828;47.064;15.422;2023-05-10T20:08:55;16.00;99.90
21340;DHT22;10828;47.064;15.422;2023-05-10T20:11:26;15.90;99.90
21340;DHT22;10828;47.064;15.422;2023-05-10T20:13:55;15.80;99.90
21340;DHT22;10828;47.064;15.422;2023-05-10T20:16:23;15.80;99.90
21340;DHT22;10828;47.064;15.422;2023-05-10T20:18:51;15.90;99.90
21340;DHT22;10828;47.064;15.422;2023-05-10T20:21:18;15.90;99.90
21340;DHT22;10828;47.064;15.422;2023-05-10T20:23:47;15.80;99.90
21340;DHT22;10828;47.064;15.422;2023-05-10T20:26:15;15.80;99.90
21340;DHT22;10828;47.064;15.422;2023-05-10T20:28:46;15.70;99.90
21340;DHT22;10828;47.064;15.422;2023-05-10T20:31:16;15.70;99.90
21340;DHT22;10828;47.064;15.422;2023-05-10T20:33:46;15.80;99.90